Time;durP1;ratioP1;P1;durP2;ratioP2;P2;SDS_P1;SDS_P2;PMS_P1;PMS_P2;Temp;Humidity;BMP_temperature;BMP_pressure;BME280_temperature;BME280_humidity;BME280_pressure;Samples;Min_cycle;Max_cycle;Signal;HPM_P1;HPM_P2
2021/05/21 00:02:06;;;;;;;5.43;4.20;;;8.70;99.90;;;;;;5093771;28;20113;-81
2021/05/21 00:04:32;;;;;;;3.95;3.72;;;8.70;99.90;;;;;;5076523;28;20127;-80
2021/05/21 00:06:59;;;;;;;3.92;3.65;;;8.80;99.90;;;;;;5093686;28;20087;-80
2021/05/21 00:09:26;;;;;;;5.05;3.90;;;8.80;99.90;;;;;;5093483;28;20052;-81
2021/05/21 00:11:53;;;;;;;3.50;3.30;;;8.90;99.90;;;;;;5093892;28;20127;-79
2021/05/21 00:14:20;;;;;;;2.75;2.58;;;8.90;99.90;;;;;;5092943;28;20147;-80
2021/05/21 00:16:47;;;;;;;3.50;3.20;;;9.00;99.90;;;;;;5093795;28;20105;-80
2021/05/21 00:19:14;;;;;;;7.45;3.35;;;9.00;99.90;;;;;;5075672;28;20099;-81
2021/05/21 00:21:41;;;;;;;2.63;2.28;;;9.10;99.90;;;;;;5093298;28;20044;-80
2021/05/21 00:24:08;;;;;;;2.70;2.60;;;9.20;99.90;;;;;;5093222;28;20044;-80
2021/05/21 00:26:35;;;;;;;2.25;2.15;;;9.30;99.90;;;;;;5096674;28;20079;-81
2021/05/21 00:29:02;;;;;;;2.50;2.33;;;9.30;99.90;;;;;;5077264;28;20078;-81
2021/05/21 00:31:31;;;;;;;2.70;2.17;;;9.40;99.90;;;;;;5094780;28;20066;-81
2021/05/21 00:33:59;;;;;;;3.42;2.53;;;9.40;99.90;;;;;;5095012;28;20059;-79
2021/05/21 00:36:26;;;;;;;2.13;2.03;;;9.30;99.90;;;;;;5079300;28;20126;-80
2021/05/21 00:38:52;;;;;;;1.90;1.80;;;9.40;99.90;;;;;;5098557;28;20087;-81
2021/05/21 00:41:23;;;;;;;5.07;1.95;;;9.50;99.90;;;;;;5098033;28;20083;-81
2021/05/21 00:43:54;;;;;;;2.05;1.58;;;9.50;99.90;;;;;;5098240;28;20454;-80
2021/05/21 00:46:21;;;;;;;2.90;1.88;;;9.50;99.90;;;;;;5080122;28;20128;-81
2021/05/21 00:48:48;;;;;;;1.85;1.75;;;9.50;99.90;;;;;;5079986;28;20047;-79
2021/05/21 00:51:15;;;;;;;1.63;1.52;;;9.50;99.90;;;;;;5097790;28;20044;-81
2021/05/21 00:53:42;;;;;;;1.80;1.70;;;9.40;99.90;;;;;;5097489;28;20079;-81
2021/05/21 00:56:09;;;;;;;4.40;1.70;;;9.40;99.90;;;;;;5079304;28;20044;-81
2021/05/21 00:58:37;;;;;;;2.08;1.95;;;9.30;99.90;;;;;;5079218;28;20105;-81
2021/05/21 01:01:04;;;;;;;2.00;1.70;;;9.30;99.90;;;;;;5078833;28;20051;-81
2021/05/21 01:03:31;;;;;;;3.97;1.90;;;9.30;99.90;;;;;;5078790;28;20416;-80
2021/05/21 01:05:58;;;;;;;11.85;2.85;;;9.30;99.90;;;;;;5097375;28;20131;-80
2021/05/21 01:08:25;;;;;;;2.90;1.75;;;9.20;99.90;;;;;;5096919;28;20483;-79
2021/05/21 01:11:04;;;;;;;1.77;1.73;;;9.20;99.90;;;;;;5097101;28;20481;-81
2021/05/21 01:13:32;;;;;;;1.88;1.77;;;9.10;99.90;;;;;;5096430;28;20060;-79
2021/05/21 01:15:59;;;;;;;4.22;1.98;;;9.10;99.90;;;;;;5100374;28;20051;-81
2021/05/21 01:18:25;;;;;;;1.98;1.88;;;9.20;99.90;;;;;;5082262;28;20084;-80
2021/05/21 01:20:52;;;;;;;8.32;2.20;;;9.10;99.90;;;;;;5100145;28;20496;-81
2021/05/21 01:23:19;;;;;;;2.40;1.73;;;9.10;99.90;;;;;;5082198;28;20055;-81
2021/05/21 01:25:46;;;;;;;4.18;1.80;;;9.10;99.90;;;;;;5081413;28;20079;-80
2021/05/21 01:28:15;;;;;;;2.13;2.03;;;9.00;99.90;;;;;;5081115;28;20040;-81
2021/05/21 01:30:43;;;;;;;1.85;1.75;;;9.00;99.90;;;;;;5080658;28;20056;-81
2021/05/21 01:33:11;;;;;;;2.05;1.90;;;8.90;99.90;;;;;;5098496;28;20052;-81
2021/05/21 01:35:39;;;;;;;2.78;1.90;;;8.80;99.90;;;;;;5079597;28;20474;-80
2021/05/21 01:38:07;;;;;;;3.03;2.25;;;8.70;99.90;;;;;;5080479;28;20397;-81
2021/05/21 01:40:37;;;;;;;2.28;2.17;;;8.60;99.90;;;;;;5097593;28;20083;-81
2021/05/21 01:43:11;;;;;;;2.22;2.13;;;8.60;99.90;;;;;;5097315;28;20420;-81
2021/05/21 01:45:39;;;;;;;2.60;2.45;;;8.50;99.90;;;;;;5080135;28;20051;-81
2021/05/21 01:48:08;;;;;;;2.45;2.35;;;8.50;99.90;;;;;;5100130;28;20044;-81
2021/05/21 01:50:35;;;;;;;2.40;2.17;;;8.40;99.90;;;;;;5109506;28;20055;-81
2021/05/21 01:53:01;;;;;;;2.35;2.10;;;8.30;99.90;;;;;;5082178;28;20102;-81
2021/05/21 01:55:28;;;;;;;2.35;2.25;;;8.30;99.90;;;;;;5080076;28;20083;-79
2021/05/21 01:57:55;;;;;;;3.08;2.88;;;8.30;99.90;;;;;;5080207;28;20466;-81
2021/05/21 02:00:22;;;;;;;2.50;2.30;;;8.30;99.90;;;;;;5080851;28;20440;-81
2021/05/21 02:02:49;;;;;;;4.38;2.50;;;8.30;99.90;;;;;;5098321;28;20090;-80
2021/05/21 02:05:15;;;;;;;2.70;2.47;;;8.30;99.90;;;;;;5098075;28;20105;-81
2021/05/21 02:07:42;;;;;;;2.22;2.13;;;8.30;99.90;;;;;;5098390;28;20044;-81
2021/05/21 02:10:10;;;;;;;2.08;1.98;;;8.30;99.90;;;;;;5079677;28;20489;-81
2021/05/21 02:12:41;;;;;;;2.00;1.80;;;8.40;99.90;;;;;;5097570;28;20055;-81
2021/05/21 02:15:08;;;;;;;7.75;2.42;;;8.40;99.90;;;;;;5096938;28;20052;-81
2021/05/21 02:17:35;;;;;;;2.47;2.30;;;8.40;99.90;;;;;;5078675;28;20543;-80
2021/05/21 02:20:06;;;;;;;8.25;2.50;;;8.40;99.90;;;;;;5096514;28;20079;-80
2021/05/21 02:22:33;;;;;;;2.90;1.90;;;8.40;99.90;;;;;;5096469;28;20079;-81
2021/05/21 02:25:01;;;;;;;2.35;2.15;;;8.40;99.90;;;;;;5096537;28;20048;-81
2021/05/21 02:27:28;;;;;;;2.17;2.03;;;8.40;99.90;;;;;;5077589;28;20048;-79
2021/05/21 02:29:56;;;;;;;3.10;2.28;;;8.40;99.90;;;;;;5096018;28;20424;-81
2021/05/21 02:32:23;;;;;;;2.50;2.15;;;8.30;99.90;;;;;;5076921;28;20071;-81
2021/05/21 02:34:51;;;;;;;2.20;2.10;;;8.30;99.90;;;;;;5095407;28;20048;-80
2021/05/21 02:37:18;;;;;;;4.80;2.35;;;8.30;99.90;;;;;;5095437;28;20051;-79
2021/05/21 02:39:45;;;;;;;2.15;2.05;;;8.20;99.90;;;;;;5077898;28;20083;-81
2021/05/21 02:42:12;;;;;;;4.80;2.50;;;8.20;99.90;;;;;;5077742;28;20048;-81
2021/05/21 02:44:38;;;;;;;2.72;2.40;;;8.20;99.90;;;;;;5097983;28;20079;-81
2021/05/21 02:47:06;;;;;;;3.85;2.50;;;8.10;99.90;;;;;;5096300;28;20079;-80
2021/05/21 02:49:34;;;;;;;2.38;2.22;;;8.10;99.90;;;;;;5078605;28;20043;-81
2021/05/21 02:52:02;;;;;;;2.88;2.65;;;8.10;99.90;;;;;;5078029;28;20462;-80
2021/05/21 02:54:29;;;;;;;3.47;2.25;;;8.10;99.90;;;;;;5095668;28;20113;-81
2021/05/21 02:56:56;;;;;;;2.60;2.40;;;8.10;99.90;;;;;;5096213;28;20048;-81
2021/05/21 02:59:22;;;;;;;4.55;2.35;;;8.10;99.90;;;;;;5078388;28;20519;-80
2021/05/21 03:01:49;;;;;;;3.83;2.22;;;8.10;99.90;;;;;;5097409;28;20127;-81
2021/05/21 03:04:16;;;;;;;4.47;2.80;;;8.20;99.90;;;;;;5081146;28;20076;-81
2021/05/21 03:06:43;;;;;;;8.18;2.88;;;8.10;99.90;;;;;;5080529;28;20048;-81
2021/05/21 03:09:09;;;;;;;5.53;2.50;;;8.00;99.90;;;;;;5079578;28;20071;-81
2021/05/21 03:11:36;;;;;;;3.10;2.78;;;8.00;99.90;;;;;;5097860;28;20383;-80
2021/05/21 03:14:03;;;;;;;2.80;2.40;;;8.10;99.90;;;;;;5069304;28;20092;-81
2021/05/21 03:16:31;;;;;;;2.88;2.47;;;8.00;99.90;;;;;;5076788;28;20504;-81
2021/05/21 03:18:58;;;;;;;4.95;2.50;;;8.00;99.90;;;;;;5059166;28;20132;-81
2021/05/21 03:21:24;;;;;;;3.38;3.00;;;8.00;99.90;;;;;;5075668;28;20048;-81
2021/05/21 03:23:51;;;;;;;3.20;2.83;;;7.90;99.90;;;;;;5076380;28;20041;-81
2021/05/21 03:26:18;;;;;;;4.20;2.53;;;7.80;99.90;;;;;;5075738;28;20048;-80
2021/05/21 03:28:45;;;;;;;6.85;3.70;;;7.70;99.90;;;;;;5075254;28;20048;-80
2021/05/21 03:31:11;;;;;;;3.30;3.00;;;7.70;99.90;;;;;;5075008;28;20049;-81
2021/05/21 03:33:38;;;;;;;3.80;3.25;;;7.60;99.90;;;;;;5056617;28;20072;-80
2021/05/21 03:36:05;;;;;;;3.13;2.70;;;7.60;99.90;;;;;;5060679;28;20048;-81
2021/05/21 03:38:32;;;;;;;4.18;3.72;;;7.60;99.90;;;;;;5059845;28;20048;-79
2021/05/21 03:40:59;;;;;;;2.97;2.70;;;7.60;99.90;;;;;;5075933;28;20084;-81
2021/05/21 03:43:26;;;;;;;8.07;2.78;;;7.60;99.90;;;;;;5059800;28;20482;-81
2021/05/21 03:45:53;;;;;;;5.95;3.70;;;7.60;99.90;;;;;;5058728;28;20053;-80
2021/05/21 03:48:20;;;;;;;7.60;3.72;;;7.60;99.90;;;;;;5077023;28;20531;-81
2021/05/21 03:50:46;;;;;;;3.92;3.45;;;7.60;99.90;;;;;;5058787;28;20107;-81
2021/05/21 03:53:15;;;;;;;8.68;3.67;;;7.70;99.90;;;;;;5058579;28;20090;-81
2021/05/21 03:55:42;;;;;;;8.85;3.80;;;7.60;99.90;;;;;;5058008;28;20052;-81
2021/05/21 03:58:09;;;;;;;6.30;2.97;;;7.70;99.90;;;;;;5075913;28;20078;-81
2021/05/21 04:00:36;;;;;;;6.10;3.28;;;7.70;99.90;;;;;;5075086;28;20078;-80
2021/05/21 04:03:06;;;;;;;7.88;3.40;;;7.80;99.90;;;;;;5056138;28;20090;-81
2021/05/21 04:05:33;;;;;;;9.77;3.05;;;7.80;99.90;;;;;;5074175;28;20041;-81
2021/05/21 04:08:00;;;;;;;7.07;3.10;;;7.90;99.90;;;;;;5073542;28;20501;-80
2021/05/21 04:10:27;;;;;;;4.55;2.78;;;7.80;99.90;;;;;;5074085;28;20094;-80
2021/05/21 04:12:54;;;;;;;3.20;2.92;;;8.00;99.90;;;;;;5077506;28;20072;-80
2021/05/21 04:15:21;;;;;;;7.95;3.40;;;8.00;99.90;;;;;;5079586;28;20389;-79
2021/05/21 04:17:48;;;;;;;7.50;2.90;;;8.00;99.90;;;;;;5097770;28;20131;-80
2021/05/21 04:20:15;;;;;;;5.22;2.90;;;8.20;99.90;;;;;;5079218;28;20131;-79
2021/05/21 04:22:41;;;;;;;4.40;2.63;;;8.30;99.90;;;;;;5097147;28;20084;-79
2021/05/21 04:25:09;;;;;;;8.38;2.63;;;8.40;99.90;;;;;;5097410;28;20112;-81
2021/05/21 04:27:35;;;;;;;8.80;2.35;;;8.60;99.90;;;;;;5078783;28;20052;-80
2021/05/21 04:30:03;;;;;;;9.52;2.40;;;8.70;99.90;;;;;;5097764;28;20066;-80
2021/05/21 04:32:30;;;;;;;2.00;1.85;;;8.90;99.90;;;;;;5096979;28;20064;-79
2021/05/21 04:34:58;;;;;;;4.72;2.13;;;9.10;99.90;;;;;;5096574;28;20052;-80
2021/05/21 04:37:25;;;;;;;6.47;1.95;;;9.30;99.90;;;;;;5078207;28;20488;-80
2021/05/21 04:39:52;;;;;;;2.53;1.40;;;9.40;99.90;;;;;;5096775;28;20131;-81
2021/05/21 04:42:38;;;;;;;1.60;1.50;;;9.60;99.90;;;;;;5096664;28;20044;-81
2021/05/21 04:45:07;;;;;;;6.63;1.50;;;9.70;99.90;;;;;;5097228;28;20048;-80
2021/05/21 04:47:34;;;;;;;2.47;1.48;;;9.90;99.90;;;;;;5078714;28;20072;-81
2021/05/21 04:50:02;;;;;;;12.75;2.55;;;10.00;99.90;;;;;;5101244;28;20084;-81
2021/05/21 04:52:28;;;;;;;3.63;1.50;;;10.10;99.90;;;;;;5083219;28;20044;-81
2021/05/21 04:54:55;;;;;;;4.47;1.75;;;10.20;99.90;;;;;;5082443;28;20087;-81
2021/05/21 04:57:22;;;;;;;12.07;2.22;;;10.30;99.90;;;;;;5099785;28;20048;-81
2021/05/21 04:59:49;;;;;;;5.22;1.88;;;10.30;99.90;;;;;;5099457;28;20055;-81
2021/05/21 05:02:15;;;;;;;1.40;1.30;;;10.50;99.90;;;;;;5100161;28;20105;-80
2021/05/21 05:04:42;;;;;;;1.83;1.45;;;10.60;99.90;;;;;;5084144;28;20044;-80
2021/05/21 05:07:09;;;;;;;1.40;1.30;;;10.80;99.90;;;;;;5100443;28;20063;-81
2021/05/21 05:09:35;;;;;;;1.85;1.67;;;11.00;99.90;;;;;;5100290;28;20393;-81
2021/05/21 05:12:02;;;;;;;1.73;1.23;;;11.20;99.90;;;;;;5080911;28;20064;-81
2021/05/21 05:14:29;;;;;;;1.27;1.17;;;11.30;99.90;;;;;;5098458;28;20480;-82
2021/05/21 05:16:56;;;;;;;2.50;1.50;;;11.40;99.90;;;;;;5098963;28;20523;-81
2021/05/21 05:19:23;;;;;;;2.85;1.10;;;11.60;99.90;;;;;;5098605;28;20473;-81
2021/05/21 05:21:49;;;;;;;1.92;1.33;;;11.80;99.90;;;;;;5079326;28;20077;-81
2021/05/21 05:24:21;;;;;;;2.35;1.10;;;12.00;99.90;;;;;;5099262;28;20452;-81
2021/05/21 05:26:48;;;;;;;1.15;1.08;;;12.30;99.90;;;;;;5098819;28;20040;-80
2021/05/21 05:29:15;;;;;;;0.95;0.95;;;12.40;99.90;;;;;;5098868;28;20067;-79
2021/05/21 05:31:46;;;;;;;2.55;1.05;;;12.50;99.90;;;;;;5081133;28;20424;-81
2021/05/21 05:34:14;;;;;;;1.23;1.20;;;12.50;99.90;;;;;;5098246;28;20059;-79
2021/05/21 05:36:41;;;;;;;3.00;1.10;;;12.40;99.90;;;;;;5078799;28;20048;-81
2021/05/21 05:39:09;;;;;;;1.20;1.10;;;12.40;99.90;;;;;;5096731;28;20104;-81
2021/05/21 05:41:35;;;;;;;1.48;1.13;;;12.40;99.90;;;;;;5096717;28;20044;-82
2021/05/21 05:44:03;;;;;;;3.50;1.20;;;12.60;99.90;;;;;;5096892;28;20044;-82
2021/05/21 05:46:30;;;;;;;1.77;0.82;;;12.70;99.90;;;;;;5078973;28;20561;-81
2021/05/21 05:48:57;;;;;;;1.05;1.05;;;12.80;99.90;;;;;;5096991;28;20048;-81
2021/05/21 05:51:23;;;;;;;2.83;1.08;;;12.90;99.90;;;;;;5096290;28;20048;-82
2021/05/21 05:53:50;;;;;;;1.50;1.20;;;12.90;99.90;;;;;;5078282;28;20087;-80
2021/05/21 05:56:17;;;;;;;2.67;1.00;;;12.80;99.90;;;;;;5096211;28;20409;-80
2021/05/21 05:58:43;;;;;;;1.38;1.00;;;12.70;99.90;;;;;;5079266;28;20079;-80
2021/05/21 06:01:10;;;;;;;1.92;1.10;;;12.70;99.90;;;;;;5097163;28;20044;-81
2021/05/21 06:03:37;;;;;;;1.10;1.00;;;12.70;99.90;;;;;;5096160;28;20048;-80
2021/05/21 06:06:04;;;;;;;5.32;1.08;;;12.70;99.90;;;;;;5078231;28;20048;-80
2021/05/21 06:08:51;;;;;;;2.22;1.27;;;13.20;99.90;;;;;;5095762;28;20044;-81
2021/05/21 06:11:17;;;;;;;1.95;0.70;;;14.00;99.90;;;;;;5095864;28;20080;-81
2021/05/21 06:13:44;;;;;;;1.85;0.82;;;14.20;99.90;;;;;;5095586;28;20080;-81
2021/05/21 06:16:11;;;;;;;2.25;0.82;;;14.30;99.90;;;;;;5096088;28;20047;-81
2021/05/21 06:18:40;;;;;;;3.40;1.00;;;14.40;99.90;;;;;;5095208;28;20109;-81
2021/05/21 06:21:07;;;;;;;4.10;0.90;;;14.70;99.90;;;;;;5075959;28;20044;-81
2021/05/21 06:23:34;;;;;;;1.48;1.00;;;14.80;99.90;;;;;;5094540;28;20051;-81
2021/05/21 06:26:14;;;;;;;1.35;1.05;;;14.80;99.90;;;;;;5094632;28;20466;-80
2021/05/21 06:28:41;;;;;;;8.95;2.95;;;15.00;99.90;;;;;;5076282;28;20119;-80
2021/05/21 06:31:09;;;;;;;9.43;2.15;;;15.50;99.90;;;;;;5095424;28;20168;-81
2021/05/21 06:33:36;;;;;;;2.28;1.23;;;15.60;99.90;;;;;;5094249;28;20567;-80
2021/05/21 06:36:04;;;;;;;1.23;1.10;;;15.60;99.90;;;;;;5078190;28;20091;-82
2021/05/21 06:38:31;;;;;;;7.10;2.00;;;16.00;99.90;;;;;;5080927;28;20048;-81
2021/05/21 06:40:57;;;;;;;1.13;1.02;;;16.80;99.90;;;;;;5097818;28;20048;-81
2021/05/21 06:43:28;;;;;;;2.67;0.80;;;17.50;99.90;;;;;;5097836;28;20094;-80
2021/05/21 06:45:55;;;;;;;9.30;1.45;;;18.50;99.90;;;;;;5097493;28;20475;-79
2021/05/21 06:48:26;;;;;;;2.60;1.20;;;19.20;99.90;;;;;;5097395;28;20056;-81
2021/05/21 06:50:53;;;;;;;2.85;1.63;;;19.40;99.90;;;;;;5079152;28;20136;-81
2021/05/21 06:53:22;;;;;;;1.30;1.00;;;20.40;99.90;;;;;;5096402;28;20048;-81
2021/05/21 06:55:50;;;;;;;4.70;0.75;;;20.70;98.20;;;;;;5078981;28;20048;-79
2021/05/21 06:58:19;;;;;;;7.43;0.90;;;21.70;95.60;;;;;;5096192;28;20134;-81
2021/05/21 07:00:47;;;;;;;4.22;0.82;;;21.90;93.40;;;;;;5077971;28;20074;-81
2021/05/21 07:03:14;;;;;;;4.13;1.25;;;21.70;90.00;;;;;;5096123;28;20083;-81
2021/05/21 07:05:46;;;;;;;5.85;1.20;;;22.00;90.50;;;;;;5095998;28;20542;-81
2021/05/21 07:08:13;;;;;;;12.25;4.95;;;21.60;86.20;;;;;;5094987;28;20123;-79
2021/05/21 07:10:40;;;;;;;2.17;1.90;;;22.20;83.50;;;;;;5076899;28;20078;-81
2021/05/21 07:13:17;;;;;;;3.33;1.52;;;24.10;79.70;;;;;;5094561;28;20075;-81
2021/05/21 07:15:45;;;;;;;8.88;4.15;;;24.80;70.40;;;;;;5077391;28;20385;-81
2021/05/21 07:18:12;;;;;;;3.63;1.00;;;24.80;69.00;;;;;;5094778;28;20076;-79
2021/05/21 07:20:45;;;;;;;4.72;0.80;;;25.20;68.50;;;;;;5094922;28;20078;-80
2021/05/21 07:23:12;;;;;;;1.50;0.75;;;26.30;67.60;;;;;;5095784;28;20047;-79
2021/05/21 07:25:39;;;;;;;1.45;0.77;;;26.40;63.00;;;;;;5095781;28;20075;-81
2021/05/21 07:28:06;;;;;;;1.02;0.50;;;25.80;60.10;;;;;;5095405;28;20051;-81
2021/05/21 07:30:33;;;;;;;1.83;0.50;;;25.20;61.70;;;;;;5076720;28;20084;-81
2021/05/21 07:33:00;;;;;;;5.75;0.75;;;24.90;60.20;;;;;;5076687;28;20040;-81
2021/05/21 07:35:26;;;;;;;0.73;0.40;;;23.70;63.10;;;;;;5094836;28;20048;-80
2021/05/21 07:37:53;;;;;;;18.02;2.80;;;23.60;63.40;;;;;;5076382;28;20071;-81
2021/05/21 07:40:20;;;;;;;2.80;0.63;;;23.00;64.20;;;;;;5094832;28;20094;-81
2021/05/21 07:42:47;;;;;;;0.47;0.30;;;22.50;65.40;;;;;;5093468;28;20127;-81
2021/05/21 07:45:17;;;;;;;14.10;1.15;;;22.70;66.60;;;;;;5096315;28;20044;-79
2021/05/21 07:47:44;;;;;;;3.03;0.50;;;21.40;65.80;;;;;;5098671;28;20138;-80
2021/05/21 07:50:12;;;;;;;2.22;0.47;;;21.10;67.70;;;;;;5098901;28;20051;-81
2021/05/21 07:52:39;;;;;;;0.70;0.38;;;20.10;69.90;;;;;;5098067;28;20083;-81
2021/05/21 07:55:06;;;;;;;3.58;1.75;;;20.40;73.60;;;;;;5080466;28;20052;-81
2021/05/21 07:57:33;;;;;;;1.33;0.45;;;20.20;73.20;;;;;;5097681;28;20048;-80
2021/05/21 08:00:00;;;;;;;2.75;0.40;;;20.40;72.90;;;;;;5079713;28;20467;-81
2021/05/21 08:02:27;;;;;;;3.80;0.50;;;20.30;72.40;;;;;;5079288;28;20044;-81
2021/05/21 08:04:53;;;;;;;0.82;0.40;;;20.10;74.60;;;;;;5097145;28;20504;-79
2021/05/21 08:07:20;;;;;;;96.50;6.25;;;20.50;73.80;;;;;;5079252;28;20075;-80
2021/05/21 08:09:50;;;;;;;3.78;0.60;;;20.20;71.30;;;;;;5080075;28;20048;-80
2021/05/21 08:12:17;;;;;;;4.78;0.95;;;19.90;74.50;;;;;;5079852;28;20055;-80
2021/05/21 08:14:47;;;;;;;5.93;0.50;;;19.70;75.00;;;;;;5075799;28;20139;-81
2021/05/21 08:17:14;;;;;;;23.38;1.50;;;20.20;76.40;;;;;;5067119;28;20062;-79
2021/05/21 08:19:43;;;;;;;1.20;0.40;;;20.40;73.00;;;;;;5076634;28;20048;-81
2021/05/21 08:22:10;;;;;;;9.93;0.88;;;20.10;74.80;;;;;;5075502;28;20128;-82
2021/05/21 08:24:36;;;;;;;0.95;0.60;;;19.30;74.00;;;;;;5080997;28;20044;-81
2021/05/21 08:27:03;;;;;;;3.83;0.47;;;19.20;76.70;;;;;;5081251;28;20086;-80
2021/05/21 08:29:30;;;;;;;4.38;0.63;;;19.20;80.90;;;;;;5081353;28;20044;-81
2021/05/21 08:32:02;;;;;;;6.75;0.80;;;19.30;77.80;;;;;;5079904;28;20044;-78
2021/05/21 08:34:29;;;;;;;1.50;0.43;;;19.10;80.90;;;;;;5079405;28;20489;-80
2021/05/21 08:36:55;;;;;;;26.08;1.33;;;19.20;78.70;;;;;;5079141;28;20504;-81
2021/05/21 08:39:23;;;;;;;4.85;0.60;;;19.10;80.00;;;;;;5079408;28;20498;-81
2021/05/21 08:41:52;;;;;;;2.67;0.85;;;19.20;80.50;;;;;;5078779;28;20064;-81
2021/05/21 08:44:20;;;;;;;0.80;0.40;;;18.80;80.40;;;;;;5078759;28;20179;-81
2021/05/21 08:46:47;;;;;;;4.93;0.93;;;18.50;80.20;;;;;;5078089;28;20123;-79
2021/05/21 08:49:19;;;;;;;2.35;0.60;;;18.50;82.00;;;;;;5078985;28;20575;-81
2021/05/21 08:51:46;;;;;;;3.38;0.60;;;18.50;83.50;;;;;;5077998;28;20071;-81
2021/05/21 08:54:33;;;;;;;5.85;0.82;;;18.40;81.30;;;;;;5078717;28;20394;-80
2021/05/21 08:57:07;;;;;;;8.93;1.00;;;18.40;84.30;;;;;;5077419;28;20048;-81
2021/05/21 08:59:35;;;;;;;6.63;0.68;;;18.20;85.90;;;;;;5077341;28;20064;-82
2021/05/21 09:02:02;;;;;;;6.95;0.73;;;18.10;85.70;;;;;;5078476;28;20071;-81
2021/05/21 09:04:49;;;;;;;1.58;0.50;;;18.30;86.00;;;;;;5079563;28;20170;-82
2021/05/21 09:07:24;;;;;;;3.15;0.43;;;18.40;85.40;;;;;;5080039;28;20052;-80
2021/05/21 09:09:54;;;;;;;15.85;0.90;;;18.50;86.50;;;;;;5078641;28;20045;-81
2021/05/21 09:12:23;;;;;;;4.90;0.60;;;18.50;84.10;;;;;;5078777;28;20079;-79
2021/05/21 09:15:07;;;;;;;3.42;0.52;;;18.50;90.20;;;;;;5094461;28;20075;-81
2021/05/21 09:17:34;;;;;;;5.85;0.60;;;18.30;85.60;;;;;;5098614;28;20056;-80
2021/05/21 09:20:03;;;;;;;0.93;0.40;;;18.20;87.90;;;;;;5098330;28;20058;-80
2021/05/21 09:23:10;;;;;;;3.53;0.60;;;18.10;88.60;;;;;;5098335;28;20047;-81
2021/05/21 09:25:48;;;;;;;2.28;0.68;;;18.00;90.10;;;;;;5080594;28;20578;-82
2021/05/21 09:28:37;;;;;;;5.78;0.93;;;18.00;89.80;;;;;;5097099;28;20459;-81
2021/05/21 09:31:21;;;;;;;2.70;0.50;;;17.90;93.10;;;;;;5097356;28;20048;-81
2021/05/21 09:33:51;;;;;;;10.18;1.33;;;18.40;90.40;;;;;;5096968;28;20123;-80
2021/05/21 09:36:32;;;;;;;1.00;0.50;;;18.30;91.00;;;;;;5079541;28;20044;-80
2021/05/21 09:39:01;;;;;;;4.65;0.40;;;18.20;91.50;;;;;;5096517;28;20124;-81
2021/05/21 09:41:57;;;;;;;30.67;1.80;;;18.30;91.90;;;;;;5081920;28;20040;-80
2021/05/21 09:44:25;;;;;;;8.68;0.93;;;18.40;92.10;;;;;;5079282;28;20523;-78
2021/05/21 09:46:53;;;;;;;8.38;1.05;;;18.50;89.80;;;;;;5096768;28;20079;-81
2021/05/21 09:49:34;;;;;;;4.80;0.43;;;18.50;90.80;;;;;;5096822;28;20052;-79
2021/05/21 09:52:11;;;;;;;3.33;0.40;;;18.60;90.10;;;;;;5096124;28;20048;-81
2021/05/21 09:54:52;;;;;;;2.92;0.40;;;18.70;90.70;;;;;;5096406;28;20416;-79
2021/05/21 09:57:33;;;;;;;1.63;0.40;;;18.90;90.50;;;;;;5077822;28;20107;-80
2021/05/21 10:00:02;;;;;;;1.75;0.35;;;19.20;91.50;;;;;;5095521;28;20055;-81
2021/05/21 10:02:31;;;;;;;0.90;0.40;;;19.50;90.80;;;;;;5095203;28;20044;-80
2021/05/21 10:05:00;;;;;;;7.03;0.80;;;19.70;87.20;;;;;;5077497;28;20058;-80
2021/05/21 10:07:27;;;;;;;4.68;0.52;;;19.90;87.50;;;;;;5095332;28;20055;-80
2021/05/21 10:09:54;;;;;;;0.88;0.30;;;20.10;86.50;;;;;;5095405;28;20040;-81
2021/05/21 10:12:21;;;;;;;0.63;0.40;;;19.80;84.10;;;;;;5082945;28;20082;-82
2021/05/21 10:14:48;;;;;;;0.60;0.50;;;19.70;86.20;;;;;;5099358;28;20091;-81
2021/05/21 10:17:21;;;;;;;13.43;0.90;;;19.50;88.40;;;;;;5091898;28;20048;-80
2021/05/21 10:19:49;;;;;;;1.27;0.50;;;19.10;85.10;;;;;;5078266;28;20083;-80
2021/05/21 10:22:21;;;;;;;0.30;0.30;;;19.00;87.20;;;;;;5090890;28;20131;-81
2021/05/21 10:24:53;;;;;;;0.95;0.38;;;18.80;90.70;;;;;;5098600;28;20108;-83
2021/05/21 10:27:24;;;;;;;7.20;0.80;;;18.90;89.10;;;;;;5098182;28;20078;-80
2021/05/21 10:29:57;;;;;;;3.17;0.73;;;18.70;87.80;;;;;;5076240;28;20127;-80
2021/05/21 10:32:30;;;;;;;18.67;1.25;;;18.30;87.70;;;;;;5097964;28;20480;-79
2021/05/21 10:34:58;;;;;;;7.40;0.73;;;17.90;91.50;;;;;;5079953;28;20466;-80
2021/05/21 10:37:32;;;;;;;4.65;0.60;;;17.80;92.20;;;;;;5079838;28;20171;-79
2021/05/21 10:40:10;;;;;;;3.30;0.55;;;17.90;92.70;;;;;;5097050;28;20098;-80
2021/05/21 10:42:38;;;;;;;14.95;1.05;;;18.20;92.90;;;;;;5077811;28;20040;-80
2021/05/21 10:45:14;;;;;;;2.55;0.50;;;18.20;92.70;;;;;;5077930;28;20473;-80
2021/05/21 10:47:46;;;;;;;3.22;0.50;;;18.40;92.40;;;;;;5096199;28;20051;-80
2021/05/21 10:50:17;;;;;;;12.90;0.65;;;18.40;87.50;;;;;;5078388;28;20559;-79
2021/05/21 10:52:52;;;;;;;8.48;0.50;;;18.10;90.00;;;;;;5097309;28;20063;-78
2021/05/21 10:55:43;;;;;;;3.20;0.50;;;18.00;86.40;;;;;;5097821;28;20101;-81
2021/05/21 10:58:29;;;;;;;1.35;0.63;;;18.00;86.40;;;;;;5097156;28;20099;-79
2021/05/21 11:01:09;;;;;;;4.13;0.60;;;18.10;85.00;;;;;;5097326;28;20110;-79
2021/05/21 11:04:03;;;;;;;1.33;0.32;;;18.40;80.90;;;;;;5078793;28;20083;-81
2021/05/21 11:06:47;;;;;;;3.13;0.60;;;19.00;81.20;;;;;;5066591;28;20584;-79
2021/05/21 11:09:20;;;;;;;2.88;0.50;;;20.40;75.20;;;;;;5079622;28;20516;-81
2021/05/21 11:11:52;;;;;;;10.15;0.73;;;20.80;71.00;;;;;;5078542;28;20126;-80
2021/05/21 11:14:38;;;;;;;1.27;0.57;;;20.50;69.80;;;;;;5096229;28;20062;-81
2021/05/21 11:17:26;;;;;;;4.57;0.40;;;20.30;69.50;;;;;;5096009;28;20052;-81
2021/05/21 11:19:58;;;;;;;10.65;1.10;;;20.30;69.10;;;;;;5077741;28;20052;-78
2021/05/21 11:22:38;;;;;;;4.35;0.40;;;19.80;69.00;;;;;;5095666;28;20048;-80
2021/05/21 11:25:14;;;;;;;6.53;0.45;;;20.10;70.90;;;;;;5095618;28;20044;-80
2021/05/21 11:27:41;;;;;;;2.58;0.57;;;20.40;70.20;;;;;;5095749;28;20466;-79
2021/05/21 11:30:18;;;;;;;15.80;0.93;;;20.10;68.70;;;;;;5095374;28;20079;-79
2021/05/21 11:32:45;;;;;;;10.55;0.90;;;19.60;68.30;;;;;;5095252;28;20056;-78
2021/05/21 11:35:13;;;;;;;10.45;0.52;;;19.20;71.80;;;;;;5076668;28;20105;-79
2021/05/21 11:37:41;;;;;;;12.65;0.70;;;19.70;70.10;;;;;;5076348;28;20086;-79
2021/05/21 11:40:09;;;;;;;2.15;0.68;;;19.70;69.20;;;;;;5094679;28;20246;-78
2021/05/21 11:42:36;;;;;;;2.95;0.50;;;19.30;71.00;;;;;;5076858;28;20056;-77
2021/05/21 11:45:05;;;;;;;6.32;0.50;;;19.10;72.20;;;;;;5094958;28;20119;-79
2021/05/21 11:47:37;;;;;;;4.30;0.50;;;19.30;73.30;;;;;;5093413;28;20044;-77
2021/05/21 11:50:07;;;;;;;2.40;0.47;;;19.50;71.00;;;;;;5093096;28;20128;-79
2021/05/21 11:52:34;;;;;;;1.58;0.30;;;19.30;72.70;;;;;;5098789;28;20052;-81
2021/05/21 11:55:01;;;;;;;1.05;0.40;;;19.60;73.50;;;;;;5099619;28;20044;-80
2021/05/21 11:57:29;;;;;;;1.52;0.40;;;19.80;70.90;;;;;;5100257;28;20457;-83
2021/05/21 11:59:57;;;;;;;3.10;0.45;;;19.90;72.10;;;;;;5099593;28;20071;-81
2021/05/21 12:02:25;;;;;;;2.97;0.60;;;19.80;72.00;;;;;;5100200;28;20079;-80
2021/05/21 12:04:52;;;;;;;4.90;0.55;;;19.80;73.00;;;;;;5099922;28;20496;-83
2021/05/21 12:07:28;;;;;;;4.60;0.50;;;19.90;72.60;;;;;;5082201;28;20094;-81
2021/05/21 12:10:00;;;;;;;1.27;0.28;;;19.70;73.00;;;;;;5080648;28;20047;-80
2021/05/21 12:12:28;;;;;;;4.18;0.32;;;19.60;74.10;;;;;;5079377;28;20127;-80
2021/05/21 12:15:09;;;;;;;3.65;0.57;;;19.70;74.90;;;;;;5097885;28;20087;-80
2021/05/21 12:17:37;;;;;;;4.72;0.35;;;19.70;74.50;;;;;;5079071;28;20088;-80
2021/05/21 12:20:05;;;;;;;9.38;1.00;;;19.60;74.90;;;;;;5097336;28;20132;-81
2021/05/21 12:22:32;;;;;;;1.45;0.80;;;19.50;74.20;;;;;;5078510;28;20045;-80
2021/05/21 12:24:59;;;;;;;2.25;0.50;;;19.40;77.40;;;;;;5078280;28;20040;-80
2021/05/21 12:27:27;;;;;;;2.47;0.30;;;19.60;75.80;;;;;;5077834;28;20098;-79
2021/05/21 12:29:55;;;;;;;4.78;0.55;;;19.40;77.60;;;;;;5077953;28;20484;-80
2021/05/21 12:32:21;;;;;;;4.50;0.35;;;19.70;77.60;;;;;;5097681;28;20098;-80
2021/05/21 12:34:52;;;;;;;5.53;0.65;;;19.70;77.10;;;;;;5099683;28;20514;-79
2021/05/21 12:37:24;;;;;;;0.75;0.40;;;19.40;75.20;;;;;;5083679;28;20052;-79
2021/05/21 12:39:51;;;;;;;1.27;0.52;;;19.40;78.50;;;;;;5100749;28;20056;-80
2021/05/21 12:42:21;;;;;;;3.00;0.60;;;19.30;77.70;;;;;;5084586;28;20044;-81
2021/05/21 12:44:52;;;;;;;1.55;0.93;;;19.40;79.40;;;;;;5083860;28;20047;-80
2021/05/21 12:47:20;;;;;;;17.85;1.83;;;19.40;77.70;;;;;;5102056;28;20055;-81
2021/05/21 12:49:52;;;;;;;1.75;0.65;;;19.20;81.60;;;;;;5101302;28;20044;-81
2021/05/21 12:52:19;;;;;;;1.73;0.50;;;19.40;80.50;;;;;;5101235;28;20505;-80
2021/05/21 12:54:47;;;;;;;5.57;0.50;;;19.50;76.90;;;;;;5100052;28;20052;-80
2021/05/21 12:57:25;;;;;;;4.13;0.40;;;19.20;78.40;;;;;;5100887;28;20101;-81
2021/05/21 12:59:57;;;;;;;14.77;1.60;;;19.20;78.00;;;;;;5101164;28;20044;-80
2021/05/21 13:02:26;;;;;;;6.85;0.60;;;18.70;78.80;;;;;;5100158;28;20073;-79